aviador You're here:

CYBU Decoded Metar

NIPAWIN AIRPORT in SK, CANADA
Report Time2017-11-20 05:00:00
UTC Time2017-11-20 05:49:37
Flight Rules vfr VFR
Wind050° at 09 kt
W.Decomp.*RWY 03: 8.8 kt HW 1.7 kt RCW
RWY 12: 1.7 kt HW 8.8 kt LCW
W.Rank050° ranks 28
Current wind is above 050° avg. (7.1)
Visibility9999 m
Phenomena:N/A
Clouds:Overcast 090 Hf
Expected CloudBase > 1,200 ft AGL from Temp-Dew spread
Ceiling9,000 ft
Temp-9°C (ISA -22)
Dew Point-12°C (79% RH)
AAT-15.4°C
QNH996 hPa
Density Alt-827 ft
Elevation1,227 ft
Report Wrong Elevation
Raw Report
CYBU 200500Z AUTO 05009KT 9SM OVC090 M09/M12 A2940 RMK PRESFR
SLP984=

Extra information for CYBU:More info

Metar Taf Metar & Taf Last 4 Metars F.Rules Stats Wind Profile Meteogram Temp Stats Airport Information Weather charts Add Link Nearby VenuesMetar ALERT Operation Metar Decoded Social comments